sensor_id;sensor_type;location;lat;lon;timestamp;temperature;humidity
25945;SHT31;13742;49.306;8.636;2022-11-11T00:00:33;8.65;85.75
25945;SHT31;13742;49.306;8.636;2022-11-11T00:01:32;8.65;85.83
25945;SHT31;13742;49.306;8.636;2022-11-11T00:02:32;8.61;85.40
25945;SHT31;13742;49.306;8.636;2022-11-11T00:03:32;8.61;85.62
25945;SHT31;13742;49.306;8.636;2022-11-11T00:04:32;8.65;85.89
25945;SHT31;13742;49.306;8.636;2022-11-11T00:05:32;8.64;85.81
25945;SHT31;13742;49.306;8.636;2022-11-11T00:06:32;8.65;85.98
25945;SHT31;13742;49.306;8.636;2022-11-11T00:07:32;8.64;86.10
25945;SHT31;13742;49.306;8.636;2022-11-11T00:08:32;8.65;85.80
25945;SHT31;13742;49.306;8.636;2022-11-11T00:09:32;8.64;85.71
25945;SHT31;13742;49.306;8.636;2022-11-11T00:10:32;8.62;85.69
25945;SHT31;13742;49.306;8.636;2022-11-11T00:11:32;8.62;85.75
25945;SHT31;13742;49.306;8.636;2022-11-11T00:12:32;8.59;85.57
25945;SHT31;13742;49.306;8.636;2022-11-11T00:13:33;8.58;85.62
25945;SHT31;13742;49.306;8.636;2022-11-11T00:14:32;8.56;85.41
25945;SHT31;13742;49.306;8.636;2022-11-11T00:15:35;8.54;85.39
25945;SHT31;13742;49.306;8.636;2022-11-11T00:16:47;8.55;85.45
25945;SHT31;13742;49.306;8.636;2022-11-11T00:17:37;8.58;85.53
25945;SHT31;13742;49.306;8.636;2022-11-11T00:18:38;8.55;85.57
25945;SHT31;13742;49.306;8.636;2022-11-11T00:19:37;8.55;85.52
25945;SHT31;13742;49.306;8.636;2022-11-11T00:20:37;8.56;85.37
25945;SHT31;13742;49.306;8.636;2022-11-11T00:21:37;8.55;85.55
25945;SHT31;13742;49.306;8.636;2022-11-11T00:22:37;8.55;85.55
25945;SHT31;13742;49.306;8.636;2022-11-11T00:23:37;8.52;85.36
25945;SHT31;13742;49.306;8.636;2022-11-11T00:24:37;8.55;85.61
25945;SHT31;13742;49.306;8.636;2022-11-11T00:25:32;8.51;85.44
25945;SHT31;13742;49.306;8.636;2022-11-11T00:26:32;8.49;85.44
25945;SHT31;13742;49.306;8.636;2022-11-11T00:27:33;8.49;85.74
25945;SHT31;13742;49.306;8.636;2022-11-11T00:28:32;8.51;85.61
25945;SHT31;13742;49.306;8.636;2022-11-11T00:29:32;8.52;85.86
25945;SHT31;13742;49.306;8.636;2022-11-11T00:30:32;8.49;85.56
25945;SHT31;13742;49.306;8.636;2022-11-11T00:31:34;8.51;85.52
25945;SHT31;13742;49.306;8.636;2022-11-11T00:32:32;8.48;85.34
25945;SHT31;13742;49.306;8.636;2022-11-11T00:33:32;8.48;85.47
25945;SHT31;13742;49.306;8.636;2022-11-11T00:34:32;8.45;85.45
25945;SHT31;13742;49.306;8.636;2022-11-11T00:35:37;8.45;85.28
25945;SHT31;13742;49.306;8.636;2022-11-11T00:36:32;8.47;85.47
25945;SHT31;13742;49.306;8.636;2022-11-11T00:37:33;8.45;85.41
25945;SHT31;13742;49.306;8.636;2022-11-11T00:38:37;8.44;85.31
25945;SHT31;13742;49.306;8.636;2022-11-11T00:39:32;8.44;85.27
25945;SHT31;13742;49.306;8.636;2022-11-11T00:40:32;8.41;85.39
25945;SHT31;13742;49.306;8.636;2022-11-11T00:41:32;8.40;85.31
25945;SHT31;13742;49.306;8.636;2022-11-11T00:42:32;8.38;85.22
25945;SHT31;13742;49.306;8.636;2022-11-11T00:43:32;8.42;85.37
25945;SHT31;13742;49.306;8.636;2022-11-11T00:44:32;8.38;85.18
25945;SHT31;13742;49.306;8.636;2022-11-11T00:45:32;8.37;85.27
25945;SHT31;13742;49.306;8.636;2022-11-11T00:46:37;8.34;85.30
25945;SHT31;13742;49.306;8.636;2022-11-11T00:47:37;8.37;85.55
25945;SHT31;13742;49.306;8.636;2022-11-11T00:48:37;8.34;85.57
25945;SHT31;13742;49.306;8.636;2022-11-11T00:49:37;8.33;85.39
25945;SHT31;13742;49.306;8.636;2022-11-11T00:50:37;8.31;85.85
25945;SHT31;13742;49.306;8.636;2022-11-11T00:51:32;8.28;85.59
25945;SHT31;13742;49.306;8.636;2022-11-11T00:52:32;8.23;85.84
25945;SHT31;13742;49.306;8.636;2022-11-11T00:53:34;8.21;86.12
25945;SHT31;13742;49.306;8.636;2022-11-11T00:54:32;8.12;86.44
25945;SHT31;13742;49.306;8.636;2022-11-11T00:55:32;8.03;86.38
25945;SHT31;13742;49.306;8.636;2022-11-11T00:56:32;8.12;86.67
25945;SHT31;13742;49.306;8.636;2022-11-11T00:57:32;8.10;86.47
25945;SHT31;13742;49.306;8.636;2022-11-11T00:58:32;8.12;86.35
25945;SHT31;13742;49.306;8.636;2022-11-11T00:59:32;8.14;86.36
25945;SHT31;13742;49.306;8.636;2022-11-11T01:00:32;8.14;86.19
25945;SHT31;13742;49.306;8.636;2022-11-11T01:01:33;8.14;86.13
25945;SHT31;13742;49.306;8.636;2022-11-11T01:02:32;8.14;86.14
25945;SHT31;13742;49.306;8.636;2022-11-11T01:03:32;8.14;86.11
25945;SHT31;13742;49.306;8.636;2022-11-11T01:04:32;8.16;86.33
25945;SHT31;13742;49.306;8.636;2022-11-11T01:05:32;8.17;86.01
25945;SHT31;13742;49.306;8.636;2022-11-11T01:06:32;8.13;85.59
25945;SHT31;13742;49.306;8.636;2022-11-11T01:07:32;8.13;85.78
25945;SHT31;13742;49.306;8.636;2022-11-11T01:08:32;8.13;85.68
25945;SHT31;13742;49.306;8.636;2022-11-11T01:09:32;8.10;85.64
25945;SHT31;13742;49.306;8.636;2022-11-11T01:10:37;8.12;85.64
25945;SHT31;13742;49.306;8.636;2022-11-11T01:11:32;8.12;85.67
25945;SHT31;13742;49.306;8.636;2022-11-11T01:12:32;8.13;85.93
25945;SHT31;13742;49.306;8.636;2022-11-11T01:13:32;8.16;85.97
25945;SHT31;13742;49.306;8.636;2022-11-11T01:14:32;8.13;85.72
25945;SHT31;13742;49.306;8.636;2022-11-11T01:15:32;8.13;85.69
25945;SHT31;13742;49.306;8.636;2022-11-11T01:16:32;8.14;85.67
25945;SHT31;13742;49.306;8.636;2022-11-11T01:17:32;8.12;85.61
25945;SHT31;13742;49.306;8.636;2022-11-11T01:18:32;8.14;85.57
25945;SHT31;13742;49.306;8.636;2022-11-11T01:19:32;8.10;85.51
25945;SHT31;13742;49.306;8.636;2022-11-11T01:20:33;8.10;85.42
25945;SHT31;13742;49.306;8.636;2022-11-11T01:21:32;8.09;85.44
25945;SHT31;13742;49.306;8.636;2022-11-11T01:22:32;8.10;85.49
25945;SHT31;13742;49.306;8.636;2022-11-11T01:23:34;8.07;85.29
25945;SHT31;13742;49.306;8.636;2022-11-11T01:24:32;8.10;85.37
25945;SHT31;13742;49.306;8.636;2022-11-11T01:25:36;8.06;85.25
25945;SHT31;13742;49.306;8.636;2022-11-11T01:26:32;8.07;85.26
25945;SHT31;13742;49.306;8.636;2022-11-11T01:27:33;8.07;85.33
25945;SHT31;13742;49.306;8.636;2022-11-11T01:28:32;8.04;85.51
25945;SHT31;13742;49.306;8.636;2022-11-11T01:29:32;8.03;85.55
25945;SHT31;13742;49.306;8.636;2022-11-11T01:30:33;8.04;85.73
25945;SHT31;13742;49.306;8.636;2022-11-11T01:31:32;8.04;85.52
25945;SHT31;13742;49.306;8.636;2022-11-11T01:32:32;8.04;85.70
25945;SHT31;13742;49.306;8.636;2022-11-11T01:33:32;8.06;85.80
25945;SHT31;13742;49.306;8.636;2022-11-11T01:34:32;8.06;85.64
25945;SHT31;13742;49.306;8.636;2022-11-11T01:35:37;8.03;85.49
25945;SHT31;13742;49.306;8.636;2022-11-11T01:36:32;8.04;85.51
25945;SHT31;13742;49.306;8.636;2022-11-11T01:37:32;8.04;85.45
25945;SHT31;13742;49.306;8.636;2022-11-11T01:38:32;8.03;85.37
25945;SHT31;13742;49.306;8.636;2022-11-11T01:39:32;8.03;85.29
25945;SHT31;13742;49.306;8.636;2022-11-11T01:40:39;8.03;85.48
25945;SHT31;13742;49.306;8.636;2022-11-11T01:41:34;8.04;85.47
25945;SHT31;13742;49.306;8.636;2022-11-11T01:42:48;8.02;85.47
25945;SHT31;13742;49.306;8.636;2022-11-11T01:43:32;7.83;84.00
25945;SHT31;13742;49.306;8.636;2022-11-11T01:44:41;7.63;83.62
25945;SHT31;13742;49.306;8.636;2022-11-11T01:46:37;7.56;83.70
25945;SHT31;13742;49.306;8.636;2022-11-11T01:47:47;7.58;83.76
25945;SHT31;13742;49.306;8.636;2022-11-11T01:48:49;7.53;83.63
25945;SHT31;13742;49.306;8.636;2022-11-11T01:49:39;7.49;83.32
25945;SHT31;13742;49.306;8.636;2022-11-11T01:50:32;7.49;83.52
25945;SHT31;13742;49.306;8.636;2022-11-11T01:51:38;7.46;83.26
25945;SHT31;13742;49.306;8.636;2022-11-11T01:52:35;7.44;83.41
25945;SHT31;13742;49.306;8.636;2022-11-11T01:53:32;7.42;83.33
25945;SHT31;13742;49.306;8.636;2022-11-11T01:54:37;7.39;83.34
25945;SHT31;13742;49.306;8.636;2022-11-11T01:55:32;7.32;83.34
25945;SHT31;13742;49.306;8.636;2022-11-11T01:56:32;7.27;83.57
25945;SHT31;13742;49.306;8.636;2022-11-11T01:57:43;7.25;83.56
25945;SHT31;13742;49.306;8.636;2022-11-11T01:58:32;7.25;83.63
25945;SHT31;13742;49.306;8.636;2022-11-11T01:59:33;7.24;83.74
25945;SHT31;13742;49.306;8.636;2022-11-11T02:00:32;7.23;83.68
25945;SHT31;13742;49.306;8.636;2022-11-11T02:01:33;7.23;83.66
25945;SHT31;13742;49.306;8.636;2022-11-11T02:02:39;7.20;83.65
25945;SHT31;13742;49.306;8.636;2022-11-11T02:03:36;7.20;83.63
25945;SHT31;13742;49.306;8.636;2022-11-11T02:04:37;7.21;83.66
25945;SHT31;13742;49.306;8.636;2022-11-11T02:05:37;7.21;83.71
25945;SHT31;13742;49.306;8.636;2022-11-11T02:06:32;7.18;83.79
25945;SHT31;13742;49.306;8.636;2022-11-11T02:07:33;7.18;83.87
25945;SHT31;13742;49.306;8.636;2022-11-11T02:08:35;7.21;84.01
25945;SHT31;13742;49.306;8.636;2022-11-11T02:09:32;7.23;83.85
25945;SHT31;13742;49.306;8.636;2022-11-11T02:10:32;7.20;83.74
25945;SHT31;13742;49.306;8.636;2022-11-11T02:11:39;7.20;83.80
25945;SHT31;13742;49.306;8.636;2022-11-11T02:12:37;7.20;83.94
25945;SHT31;13742;49.306;8.636;2022-11-11T02:13:38;7.18;83.83
25945;SHT31;13742;49.306;8.636;2022-11-11T02:14:40;7.18;83.85
25945;SHT31;13742;49.306;8.636;2022-11-11T02:15:32;7.20;83.99
25945;SHT31;13742;49.306;8.636;2022-11-11T02:16:32;7.17;83.84
25945;SHT31;13742;49.306;8.636;2022-11-11T02:17:32;7.17;83.99
25945;SHT31;13742;49.306;8.636;2022-11-11T02:18:32;7.15;83.96
25945;SHT31;13742;49.306;8.636;2022-11-11T02:19:47;7.17;83.99
25945;SHT31;13742;49.306;8.636;2022-11-11T02:20:38;7.15;84.11
25945;SHT31;13742;49.306;8.636;2022-11-11T02:21:36;7.11;84.15
25945;SHT31;13742;49.306;8.636;2022-11-11T02:22:44;7.13;84.07
25945;SHT31;13742;49.306;8.636;2022-11-11T02:24:29;7.14;84.11
25945;SHT31;13742;49.306;8.636;2022-11-11T02:24:32;7.11;84.11
25945;SHT31;13742;49.306;8.636;2022-11-11T02:25:33;7.13;84.29
25945;SHT31;13742;49.306;8.636;2022-11-11T02:26:34;7.15;84.42
25945;SHT31;13742;49.306;8.636;2022-11-11T02:27:34;7.15;84.40
25945;SHT31;13742;49.306;8.636;2022-11-11T02:28:32;7.14;84.27
25945;SHT31;13742;49.306;8.636;2022-11-11T02:29:32;7.14;84.47
25945;SHT31;13742;49.306;8.636;2022-11-11T02:30:32;7.15;84.63
25945;SHT31;13742;49.306;8.636;2022-11-11T02:31:32;7.18;84.84
25945;SHT31;13742;49.306;8.636;2022-11-11T02:32:32;7.15;84.68
25945;SHT31;13742;49.306;8.636;2022-11-11T02:33:32;7.14;84.80
25945;SHT31;13742;49.306;8.636;2022-11-11T02:34:33;7.17;84.97
25945;SHT31;13742;49.306;8.636;2022-11-11T02:35:38;7.18;84.95
25945;SHT31;13742;49.306;8.636;2022-11-11T02:36:32;7.18;84.93
25945;SHT31;13742;49.306;8.636;2022-11-11T02:37:32;7.14;84.62
25945;SHT31;13742;49.306;8.636;2022-11-11T02:38:32;7.08;84.49
25945;SHT31;13742;49.306;8.636;2022-11-11T02:39:34;7.08;84.52
25945;SHT31;13742;49.306;8.636;2022-11-11T02:40:35;7.07;84.62
25945;SHT31;13742;49.306;8.636;2022-11-11T02:41:37;7.07;84.72
25945;SHT31;13742;49.306;8.636;2022-11-11T02:42:33;7.07;84.82
25945;SHT31;13742;49.306;8.636;2022-11-11T02:43:33;7.08;84.96
25945;SHT31;13742;49.306;8.636;2022-11-11T02:44:32;7.08;84.85
25945;SHT31;13742;49.306;8.636;2022-11-11T02:45:32;7.08;84.62
25945;SHT31;13742;49.306;8.636;2022-11-11T02:46:32;7.07;84.72
25945;SHT31;13742;49.306;8.636;2022-11-11T02:47:32;7.03;84.51
25945;SHT31;13742;49.306;8.636;2022-11-11T02:48:32;7.01;84.54
25945;SHT31;13742;49.306;8.636;2022-11-11T02:49:32;7.03;84.53
25945;SHT31;13742;49.306;8.636;2022-11-11T02:50:32;7.01;84.43
25945;SHT31;13742;49.306;8.636;2022-11-11T02:51:32;7.01;84.55
25945;SHT31;13742;49.306;8.636;2022-11-11T02:52:32;7.03;84.48
25945;SHT31;13742;49.306;8.636;2022-11-11T02:53:32;7.01;84.55
25945;SHT31;13742;49.306;8.636;2022-11-11T02:54:32;7.04;84.61
25945;SHT31;13742;49.306;8.636;2022-11-11T02:55:32;7.04;84.56
25945;SHT31;13742;49.306;8.636;2022-11-11T02:56:37;7.04;84.72
25945;SHT31;13742;49.306;8.636;2022-11-11T02:57:32;7.06;84.85
25945;SHT31;13742;49.306;8.636;2022-11-11T02:58:32;7.08;85.26
25945;SHT31;13742;49.306;8.636;2022-11-11T02:59:33;7.07;85.45
25945;SHT31;13742;49.306;8.636;2022-11-11T03:00:32;7.07;84.95
25945;SHT31;13742;49.306;8.636;2022-11-11T03:01:32;7.08;85.13
25945;SHT31;13742;49.306;8.636;2022-11-11T03:02:32;7.08;85.21
25945;SHT31;13742;49.306;8.636;2022-11-11T03:03:32;7.07;85.28
25945;SHT31;13742;49.306;8.636;2022-11-11T03:04:32;7.08;85.40
25945;SHT31;13742;49.306;8.636;2022-11-11T03:05:32;7.07;85.64
25945;SHT31;13742;49.306;8.636;2022-11-11T03:06:32;7.06;85.53
25945;SHT31;13742;49.306;8.636;2022-11-11T03:07:32;7.03;85.36
25945;SHT31;13742;49.306;8.636;2022-11-11T03:08:32;7.04;85.43
25945;SHT31;13742;49.306;8.636;2022-11-11T03:09:32;7.03;85.51
25945;SHT31;13742;49.306;8.636;2022-11-11T03:10:32;7.01;85.60
25945;SHT31;13742;49.306;8.636;2022-11-11T03:11:32;7.01;85.36
25945;SHT31;13742;49.306;8.636;2022-11-11T03:12:32;7.04;85.55
25945;SHT31;13742;49.306;8.636;2022-11-11T03:13:32;7.06;85.41
25945;SHT31;13742;49.306;8.636;2022-11-11T03:14:32;7.04;85.44
25945;SHT31;13742;49.306;8.636;2022-11-11T03:15:32;7.04;85.41
25945;SHT31;13742;49.306;8.636;2022-11-11T03:16:37;7.03;85.44
25945;SHT31;13742;49.306;8.636;2022-11-11T03:17:37;7.04;85.41
25945;SHT31;13742;49.306;8.636;2022-11-11T03:18:32;7.03;85.52
25945;SHT31;13742;49.306;8.636;2022-11-11T03:19:32;7.03;85.47
25945;SHT31;13742;49.306;8.636;2022-11-11T03:20:37;7.03;85.36
25945;SHT31;13742;49.306;8.636;2022-11-11T03:21:32;6.99;85.44
25945;SHT31;13742;49.306;8.636;2022-11-11T03:23:22;7.01;85.66
25945;SHT31;13742;49.306;8.636;2022-11-11T03:23:32;6.99;85.53
25945;SHT31;13742;49.306;8.636;2022-11-11T03:24:37;6.96;85.53
25945;SHT31;13742;49.306;8.636;2022-11-11T03:25:42;6.99;85.52
25945;SHT31;13742;49.306;8.636;2022-11-11T03:26:32;6.93;85.37
25945;SHT31;13742;49.306;8.636;2022-11-11T03:27:32;6.96;85.27
25945;SHT31;13742;49.306;8.636;2022-11-11T03:28:32;6.97;85.41
25945;SHT31;13742;49.306;8.636;2022-11-11T03:29:32;6.96;85.40
25945;SHT31;13742;49.306;8.636;2022-11-11T03:30:32;6.92;85.26
25945;SHT31;13742;49.306;8.636;2022-11-11T03:31:32;6.90;85.31
25945;SHT31;13742;49.306;8.636;2022-11-11T03:32:32;6.80;84.87
25945;SHT31;13742;49.306;8.636;2022-11-11T03:33:32;6.82;85.17
25945;SHT31;13742;49.306;8.636;2022-11-11T03:34:32;6.78;84.97
25945;SHT31;13742;49.306;8.636;2022-11-11T03:35:32;6.66;84.80
25945;SHT31;13742;49.306;8.636;2022-11-11T03:36:47;6.66;84.92
25945;SHT31;13742;49.306;8.636;2022-11-11T03:37:37;6.68;84.91
25945;SHT31;13742;49.306;8.636;2022-11-11T03:38:32;6.69;84.83
25945;SHT31;13742;49.306;8.636;2022-11-11T03:39:32;6.65;84.76
25945;SHT31;13742;49.306;8.636;2022-11-11T03:40:32;6.62;84.52
25945;SHT31;13742;49.306;8.636;2022-11-11T03:41:32;6.57;84.37
25945;SHT31;13742;49.306;8.636;2022-11-11T03:42:33;6.49;84.59
25945;SHT31;13742;49.306;8.636;2022-11-11T03:43:33;6.39;84.64
25945;SHT31;13742;49.306;8.636;2022-11-11T03:44:32;6.36;84.75
25945;SHT31;13742;49.306;8.636;2022-11-11T03:45:32;6.41;84.81
25945;SHT31;13742;49.306;8.636;2022-11-11T03:46:32;6.42;84.90
25945;SHT31;13742;49.306;8.636;2022-11-11T03:47:32;6.43;84.97
25945;SHT31;13742;49.306;8.636;2022-11-11T03:48:33;6.43;84.73
25945;SHT31;13742;49.306;8.636;2022-11-11T03:49:32;6.43;84.47
25945;SHT31;13742;49.306;8.636;2022-11-11T03:50:32;6.42;84.28
25945;SHT31;13742;49.306;8.636;2022-11-11T03:51:32;6.39;84.27
25945;SHT31;13742;49.306;8.636;2022-11-11T03:52:32;6.36;84.18
25945;SHT31;13742;49.306;8.636;2022-11-11T03:53:32;6.39;84.29
25945;SHT31;13742;49.306;8.636;2022-11-11T03:54:32;6.39;84.25
25945;SHT31;13742;49.306;8.636;2022-11-11T03:55:32;6.33;84.12
25945;SHT31;13742;49.306;8.636;2022-11-11T03:56:32;6.38;84.19
25945;SHT31;13742;49.306;8.636;2022-11-11T03:57:32;6.36;84.15
25945;SHT31;13742;49.306;8.636;2022-11-11T03:58:32;6.36;84.12
25945;SHT31;13742;49.306;8.636;2022-11-11T03:59:32;6.33;83.66
25945;SHT31;13742;49.306;8.636;2022-11-11T04:00:32;6.33;83.68
25945;SHT31;13742;49.306;8.636;2022-11-11T04:01:37;6.35;83.70
25945;SHT31;13742;49.306;8.636;2022-11-11T04:02:37;6.33;83.64
25945;SHT31;13742;49.306;8.636;2022-11-11T04:03:37;6.31;83.76
25945;SHT31;13742;49.306;8.636;2022-11-11T04:04:37;6.31;83.72
25945;SHT31;13742;49.306;8.636;2022-11-11T04:05:37;6.28;83.56
25945;SHT31;13742;49.306;8.636;2022-11-11T04:06:37;6.24;83.87
25945;SHT31;13742;49.306;8.636;2022-11-11T04:07:37;6.20;83.87
25945;SHT31;13742;49.306;8.636;2022-11-11T04:08:37;6.18;83.92
25945;SHT31;13742;49.306;8.636;2022-11-11T04:09:37;6.20;84.05
25945;SHT31;13742;49.306;8.636;2022-11-11T04:10:32;6.22;84.11
25945;SHT31;13742;49.306;8.636;2022-11-11T04:11:37;6.22;84.04
25945;SHT31;13742;49.306;8.636;2022-11-11T04:12:47;6.21;84.06
25945;SHT31;13742;49.306;8.636;2022-11-11T04:13:38;6.25;84.09
25945;SHT31;13742;49.306;8.636;2022-11-11T04:14:37;6.22;83.96
25945;SHT31;13742;49.306;8.636;2022-11-11T04:15:37;6.25;83.96
25945;SHT31;13742;49.306;8.636;2022-11-11T04:16:32;6.24;83.92
25945;SHT31;13742;49.306;8.636;2022-11-11T04:17:32;6.25;83.89
25945;SHT31;13742;49.306;8.636;2022-11-11T04:18:37;6.24;83.99
25945;SHT31;13742;49.306;8.636;2022-11-11T04:19:37;6.25;83.96
25945;SHT31;13742;49.306;8.636;2022-11-11T04:20:37;6.28;83.95
25945;SHT31;13742;49.306;8.636;2022-11-11T04:21:37;6.26;83.93
25945;SHT31;13742;49.306;8.636;2022-11-11T04:22:32;6.29;83.98
25945;SHT31;13742;49.306;8.636;2022-11-11T04:23:32;6.29;83.87
25945;SHT31;13742;49.306;8.636;2022-11-11T04:24:37;6.25;83.59
25945;SHT31;13742;49.306;8.636;2022-11-11T04:25:37;6.25;83.96
25945;SHT31;13742;49.306;8.636;2022-11-11T04:26:32;6.29;83.97
25945;SHT31;13742;49.306;8.636;2022-11-11T04:27:32;6.32;83.81
25945;SHT31;13742;49.306;8.636;2022-11-11T04:28:37;6.29;83.88
25945;SHT31;13742;49.306;8.636;2022-11-11T04:29:32;6.24;83.85
25945;SHT31;13742;49.306;8.636;2022-11-11T04:30:32;6.24;83.77
25945;SHT31;13742;49.306;8.636;2022-11-11T04:31:32;6.21;83.73
25945;SHT31;13742;49.306;8.636;2022-11-11T04:32:34;6.18;83.83
25945;SHT31;13742;49.306;8.636;2022-11-11T04:33:32;6.15;83.82
25945;SHT31;13742;49.306;8.636;2022-11-11T04:34:32;6.10;83.76
25945;SHT31;13742;49.306;8.636;2022-11-11T04:35:32;6.08;83.80
25945;SHT31;13742;49.306;8.636;2022-11-11T04:36:32;6.04;83.68
25945;SHT31;13742;49.306;8.636;2022-11-11T04:37:34;6.03;83.67
25945;SHT31;13742;49.306;8.636;2022-11-11T04:38:37;6.00;83.47
25945;SHT31;13742;49.306;8.636;2022-11-11T04:39:37;5.93;83.41
25945;SHT31;13742;49.306;8.636;2022-11-11T04:40:37;5.90;83.47
25945;SHT31;13742;49.306;8.636;2022-11-11T04:41:32;5.89;83.40
25945;SHT31;13742;49.306;8.636;2022-11-11T04:42:32;5.89;83.45
25945;SHT31;13742;49.306;8.636;2022-11-11T04:43:46;5.84;83.64
25945;SHT31;13742;49.306;8.636;2022-11-11T04:44:37;5.82;83.66
25945;SHT31;13742;49.306;8.636;2022-11-11T04:45:32;5.79;83.84
25945;SHT31;13742;49.306;8.636;2022-11-11T04:46:31;5.82;83.91
25945;SHT31;13742;49.306;8.636;2022-11-11T04:47:32;5.84;83.93
25945;SHT31;13742;49.306;8.636;2022-11-11T04:48:32;5.86;83.94
25945;SHT31;13742;49.306;8.636;2022-11-11T04:49:32;5.90;83.93
25945;SHT31;13742;49.306;8.636;2022-11-11T04:50:37;5.89;83.95
25945;SHT31;13742;49.306;8.636;2022-11-11T04:51:46;5.91;83.94
25945;SHT31;13742;49.306;8.636;2022-11-11T04:52:32;5.94;83.86
25945;SHT31;13742;49.306;8.636;2022-11-11T04:53:31;5.93;83.83
25945;SHT31;13742;49.306;8.636;2022-11-11T04:54:46;5.97;83.85
25945;SHT31;13742;49.306;8.636;2022-11-11T04:55:37;5.97;83.85
25945;SHT31;13742;49.306;8.636;2022-11-11T04:56:37;5.96;83.92
25945;SHT31;13742;49.306;8.636;2022-11-11T04:57:31;5.93;84.07
25945;SHT31;13742;49.306;8.636;2022-11-11T04:58:33;5.93;84.07
25945;SHT31;13742;49.306;8.636;2022-11-11T04:59:32;5.94;84.28
25945;SHT31;13742;49.306;8.636;2022-11-11T05:00:32;5.87;84.36
25945;SHT31;13742;49.306;8.636;2022-11-11T05:01:37;5.89;84.55
25945;SHT31;13742;49.306;8.636;2022-11-11T05:02:37;5.91;84.59
25945;SHT31;13742;49.306;8.636;2022-11-11T05:03:31;5.93;84.56
25945;SHT31;13742;49.306;8.636;2022-11-11T05:04:31;5.91;84.51
25945;SHT31;13742;49.306;8.636;2022-11-11T05:05:55;5.91;84.54
25945;SHT31;13742;49.306;8.636;2022-11-11T05:06:37;5.91;84.62
25945;SHT31;13742;49.306;8.636;2022-11-11T05:07:37;5.93;84.70
25945;SHT31;13742;49.306;8.636;2022-11-11T05:08:39;5.94;84.75
25945;SHT31;13742;49.306;8.636;2022-11-11T05:09:32;5.94;84.69
25945;SHT31;13742;49.306;8.636;2022-11-11T05:10:32;5.98;84.72
25945;SHT31;13742;49.306;8.636;2022-11-11T05:11:35;5.98;84.67
25945;SHT31;13742;49.306;8.636;2022-11-11T05:12:31;6.01;84.71
25945;SHT31;13742;49.306;8.636;2022-11-11T05:13:37;6.00;84.66
25945;SHT31;13742;49.306;8.636;2022-11-11T05:14:37;6.03;84.57
25945;SHT31;13742;49.306;8.636;2022-11-11T05:15:37;6.04;84.49
25945;SHT31;13742;49.306;8.636;2022-11-11T05:16:40;6.05;84.48
25945;SHT31;13742;49.306;8.636;2022-11-11T05:17:37;6.07;84.56
25945;SHT31;13742;49.306;8.636;2022-11-11T05:18:37;6.07;84.68
25945;SHT31;13742;49.306;8.636;2022-11-11T05:19:37;6.10;84.79
25945;SHT31;13742;49.306;8.636;2022-11-11T05:20:37;6.10;84.83
25945;SHT31;13742;49.306;8.636;2022-11-11T05:21:33;6.12;85.19
25945;SHT31;13742;49.306;8.636;2022-11-11T05:22:34;6.11;84.99
25945;SHT31;13742;49.306;8.636;2022-11-11T05:23:37;6.14;85.02
25945;SHT31;13742;49.306;8.636;2022-11-11T05:24:37;6.15;85.08
25945;SHT31;13742;49.306;8.636;2022-11-11T05:25:33;6.14;85.16
25945;SHT31;13742;49.306;8.636;2022-11-11T05:26:32;6.14;85.03
25945;SHT31;13742;49.306;8.636;2022-11-11T05:27:32;6.17;85.16
25945;SHT31;13742;49.306;8.636;2022-11-11T05:28:31;6.18;85.12
25945;SHT31;13742;49.306;8.636;2022-11-11T05:29:31;6.20;85.62
25945;SHT31;13742;49.306;8.636;2022-11-11T05:30:33;6.20;86.22
25945;SHT31;13742;49.306;8.636;2022-11-11T05:31:31;6.22;85.95
25945;SHT31;13742;49.306;8.636;2022-11-11T05:32:31;6.22;86.14
25945;SHT31;13742;49.306;8.636;2022-11-11T05:33:31;6.25;86.31
25945;SHT31;13742;49.306;8.636;2022-11-11T05:34:31;6.25;85.83
25945;SHT31;13742;49.306;8.636;2022-11-11T05:35:31;6.28;86.11
25945;SHT31;13742;49.306;8.636;2022-11-11T05:36:32;6.31;86.92
25945;SHT31;13742;49.306;8.636;2022-11-11T05:37:32;6.32;86.89
25945;SHT31;13742;49.306;8.636;2022-11-11T05:38:31;6.31;87.06
25945;SHT31;13742;49.306;8.636;2022-11-11T05:39:31;6.32;87.30
25945;SHT31;13742;49.306;8.636;2022-11-11T05:40:32;6.33;87.42
25945;SHT31;13742;49.306;8.636;2022-11-11T05:41:31;6.32;86.68
25945;SHT31;13742;49.306;8.636;2022-11-11T05:42:32;6.35;87.00
25945;SHT31;13742;49.306;8.636;2022-11-11T05:43:31;6.35;87.37
25945;SHT31;13742;49.306;8.636;2022-11-11T05:44:31;6.38;87.35
25945;SHT31;13742;49.306;8.636;2022-11-11T05:45:31;6.39;87.01
25945;SHT31;13742;49.306;8.636;2022-11-11T05:46:31;6.36;86.72
25945;SHT31;13742;49.306;8.636;2022-11-11T05:47:31;6.33;87.00
25945;SHT31;13742;49.306;8.636;2022-11-11T05:48:31;6.36;87.00
25945;SHT31;13742;49.306;8.636;2022-11-11T05:49:32;6.36;86.70
25945;SHT31;13742;49.306;8.636;2022-11-11T05:50:31;6.35;86.61
25945;SHT31;13742;49.306;8.636;2022-11-11T05:51:31;6.33;86.49
25945;SHT31;13742;49.306;8.636;2022-11-11T05:52:31;6.32;86.57
25945;SHT31;13742;49.306;8.636;2022-11-11T05:53:33;6.31;86.77
25945;SHT31;13742;49.306;8.636;2022-11-11T05:54:32;6.31;86.52
25945;SHT31;13742;49.306;8.636;2022-11-11T05:55:31;6.29;86.53
25945;SHT31;13742;49.306;8.636;2022-11-11T05:56:31;6.28;86.41
25945;SHT31;13742;49.306;8.636;2022-11-11T05:57:31;6.28;86.54
25945;SHT31;13742;49.306;8.636;2022-11-11T05:58:31;6.28;86.59
25945;SHT31;13742;49.306;8.636;2022-11-11T05:59:32;6.26;86.39
25945;SHT31;13742;49.306;8.636;2022-11-11T06:00:31;6.26;86.56
25945;SHT31;13742;49.306;8.636;2022-11-11T06:01:32;6.24;86.39
25945;SHT31;13742;49.306;8.636;2022-11-11T06:02:31;6.20;86.33
25945;SHT31;13742;49.306;8.636;2022-11-11T06:03:31;6.17;86.50
25945;SHT31;13742;49.306;8.636;2022-11-11T06:04:34;6.15;86.69
25945;SHT31;13742;49.306;8.636;2022-11-11T06:05:31;6.14;86.55
25945;SHT31;13742;49.306;8.636;2022-11-11T06:06:33;6.15;86.75
25945;SHT31;13742;49.306;8.636;2022-11-11T06:07:31;6.12;86.81
25945;SHT31;13742;49.306;8.636;2022-11-11T06:08:31;6.10;86.80
25945;SHT31;13742;49.306;8.636;2022-11-11T06:09:31;6.11;86.86
25945;SHT31;13742;49.306;8.636;2022-11-11T06:10:31;6.11;87.27
25945;SHT31;13742;49.306;8.636;2022-11-11T06:11:32;6.12;87.07
25945;SHT31;13742;49.306;8.636;2022-11-11T06:12:46;6.10;87.19
25945;SHT31;13742;49.306;8.636;2022-11-11T06:13:31;6.12;87.57
25945;SHT31;13742;49.306;8.636;2022-11-11T06:14:31;6.08;87.54
25945;SHT31;13742;49.306;8.636;2022-11-11T06:15:36;6.07;87.44
25945;SHT31;13742;49.306;8.636;2022-11-11T06:16:32;6.08;87.49
25945;SHT31;13742;49.306;8.636;2022-11-11T06:17:33;6.10;87.59
25945;SHT31;13742;49.306;8.636;2022-11-11T06:18:32;6.08;87.50
25945;SHT31;13742;49.306;8.636;2022-11-11T06:19:31;6.10;87.57
25945;SHT31;13742;49.306;8.636;2022-11-11T06:20:34;6.10;87.61
25945;SHT31;13742;49.306;8.636;2022-11-11T06:21:46;6.11;87.57
25945;SHT31;13742;49.306;8.636;2022-11-11T06:22:49;6.10;87.51
25945;SHT31;13742;49.306;8.636;2022-11-11T06:23:32;6.12;87.51
25945;SHT31;13742;49.306;8.636;2022-11-11T06:24:31;6.14;87.44
25945;SHT31;13742;49.306;8.636;2022-11-11T06:25:36;6.14;87.39